sensor_id;sensor_type;location;lat;lon;timestamp;P1;durP1;ratioP1;P2;durP2;ratioP2
10847;SDS011;5477;48.806;9.154;2023-11-18T00:00:20;2.77;;;2.37;;
10847;SDS011;5477;48.806;9.154;2023-11-18T00:02:48;2.40;;;2.20;;
10847;SDS011;5477;48.806;9.154;2023-11-18T00:05:16;3.37;;;2.40;;
10847;SDS011;5477;48.806;9.154;2023-11-18T00:07:45;2.70;;;2.13;;
10847;SDS011;5477;48.806;9.154;2023-11-18T00:10:14;2.80;;;2.30;;
10847;SDS011;5477;48.806;9.154;2023-11-18T00:12:43;2.37;;;2.00;;
10847;SDS011;5477;48.806;9.154;2023-11-18T00:15:13;2.40;;;2.00;;
10847;SDS011;5477;48.806;9.154;2023-11-18T00:17:41;2.53;;;2.17;;
10847;SDS011;5477;48.806;9.154;2023-11-18T00:20:09;2.13;;;1.90;;
10847;SDS011;5477;48.806;9.154;2023-11-18T00:22:40;2.40;;;1.90;;
10847;SDS011;5477;48.806;9.154;2023-11-18T00:25:08;3.00;;;2.00;;
10847;SDS011;5477;48.806;9.154;2023-11-18T00:27:38;2.93;;;2.07;;
10847;SDS011;5477;48.806;9.154;2023-11-18T00:30:07;2.33;;;1.93;;
10847;SDS011;5477;48.806;9.154;2023-11-18T00:32:37;2.00;;;1.87;;
10847;SDS011;5477;48.806;9.154;2023-11-18T00:35:06;2.17;;;1.80;;
10847;SDS011;5477;48.806;9.154;2023-11-18T00:37:37;2.60;;;1.93;;
10847;SDS011;5477;48.806;9.154;2023-11-18T00:40:06;2.73;;;2.20;;
10847;SDS011;5477;48.806;9.154;2023-11-18T00:42:35;2.77;;;2.20;;
10847;SDS011;5477;48.806;9.154;2023-11-18T00:45:06;2.40;;;2.20;;
10847;SDS011;5477;48.806;9.154;2023-11-18T00:47:34;3.23;;;2.30;;
10847;SDS011;5477;48.806;9.154;2023-11-18T00:50:03;2.57;;;2.37;;
10847;SDS011;5477;48.806;9.154;2023-11-18T00:52:35;3.17;;;2.70;;
10847;SDS011;5477;48.806;9.154;2023-11-18T00:55:05;3.57;;;3.07;;
10847;SDS011;5477;48.806;9.154;2023-11-18T00:57:35;3.10;;;2.80;;
10847;SDS011;5477;48.806;9.154;2023-11-18T01:00:07;3.37;;;2.67;;
10847;SDS011;5477;48.806;9.154;2023-11-18T01:02:40;2.43;;;2.23;;
10847;SDS011;5477;48.806;9.154;2023-11-18T01:05:08;6.60;;;3.00;;
10847;SDS011;5477;48.806;9.154;2023-11-18T01:07:37;4.03;;;2.87;;
10847;SDS011;5477;48.806;9.154;2023-11-18T01:10:07;4.70;;;2.80;;
10847;SDS011;5477;48.806;9.154;2023-11-18T01:12:36;3.60;;;3.20;;
10847;SDS011;5477;48.806;9.154;2023-11-18T01:15:05;5.87;;;3.00;;
10847;SDS011;5477;48.806;9.154;2023-11-18T01:17:36;3.67;;;2.90;;
10847;SDS011;5477;48.806;9.154;2023-11-18T01:20:05;2.90;;;2.70;;
10847;SDS011;5477;48.806;9.154;2023-11-18T01:22:37;3.67;;;2.97;;
10847;SDS011;5477;48.806;9.154;2023-11-18T01:25:06;3.57;;;3.00;;
10847;SDS011;5477;48.806;9.154;2023-11-18T01:27:35;3.73;;;3.13;;
10847;SDS011;5477;48.806;9.154;2023-11-18T01:30:04;4.33;;;2.97;;
10847;SDS011;5477;48.806;9.154;2023-11-18T01:32:34;3.40;;;3.10;;
10847;SDS011;5477;48.806;9.154;2023-11-18T01:35:03;3.67;;;2.93;;
10847;SDS011;5477;48.806;9.154;2023-11-18T01:37:32;2.80;;;2.50;;
10847;SDS011;5477;48.806;9.154;2023-11-18T01:40:00;2.93;;;2.63;;
10847;SDS011;5477;48.806;9.154;2023-11-18T01:42:32;3.63;;;2.93;;
10847;SDS011;5477;48.806;9.154;2023-11-18T01:45:00;3.40;;;3.10;;
10847;SDS011;5477;48.806;9.154;2023-11-18T01:47:30;3.43;;;2.90;;
10847;SDS011;5477;48.806;9.154;2023-11-18T01:50:01;3.30;;;2.73;;
10847;SDS011;5477;48.806;9.154;2023-11-18T01:52:32;2.87;;;2.67;;
10847;SDS011;5477;48.806;9.154;2023-11-18T01:55:01;2.90;;;2.60;;
10847;SDS011;5477;48.806;9.154;2023-11-18T01:57:31;3.07;;;2.70;;
10847;SDS011;5477;48.806;9.154;2023-11-18T01:59:59;4.00;;;2.90;;
10847;SDS011;5477;48.806;9.154;2023-11-18T02:02:38;3.00;;;2.70;;
10847;SDS011;5477;48.806;9.154;2023-11-18T02:05:08;3.90;;;2.60;;
10847;SDS011;5477;48.806;9.154;2023-11-18T02:07:39;2.53;;;2.20;;
10847;SDS011;5477;48.806;9.154;2023-11-18T02:10:08;3.03;;;2.77;;
10847;SDS011;5477;48.806;9.154;2023-11-18T02:12:38;4.10;;;2.50;;
10847;SDS011;5477;48.806;9.154;2023-11-18T02:15:11;2.60;;;2.37;;
10847;SDS011;5477;48.806;9.154;2023-11-18T02:17:41;3.50;;;2.37;;
10847;SDS011;5477;48.806;9.154;2023-11-18T02:20:11;3.13;;;2.70;;
10847;SDS011;5477;48.806;9.154;2023-11-18T02:22:43;3.10;;;2.80;;
10847;SDS011;5477;48.806;9.154;2023-11-18T02:25:15;4.43;;;2.77;;
10847;SDS011;5477;48.806;9.154;2023-11-18T02:27:45;2.93;;;2.50;;
10847;SDS011;5477;48.806;9.154;2023-11-18T02:30:17;2.60;;;2.40;;
10847;SDS011;5477;48.806;9.154;2023-11-18T02:32:46;3.70;;;2.40;;
10847;SDS011;5477;48.806;9.154;2023-11-18T02:35:18;3.67;;;2.70;;
10847;SDS011;5477;48.806;9.154;2023-11-18T02:37:52;2.70;;;2.50;;
10847;SDS011;5477;48.806;9.154;2023-11-18T02:40:23;3.07;;;2.77;;
10847;SDS011;5477;48.806;9.154;2023-11-18T02:42:58;3.73;;;2.43;;
10847;SDS011;5477;48.806;9.154;2023-11-18T02:45:28;3.13;;;2.43;;
10847;SDS011;5477;48.806;9.154;2023-11-18T02:47:58;3.47;;;2.47;;
10847;SDS011;5477;48.806;9.154;2023-11-18T02:50:26;4.07;;;2.70;;
10847;SDS011;5477;48.806;9.154;2023-11-18T02:52:55;2.60;;;2.40;;
10847;SDS011;5477;48.806;9.154;2023-11-18T02:55:24;4.60;;;2.57;;
10847;SDS011;5477;48.806;9.154;2023-11-18T02:57:52;2.97;;;2.20;;
10847;SDS011;5477;48.806;9.154;2023-11-18T03:00:23;2.90;;;2.17;;
10847;SDS011;5477;48.806;9.154;2023-11-18T03:02:51;2.50;;;1.93;;
10847;SDS011;5477;48.806;9.154;2023-11-18T03:05:19;2.33;;;1.90;;
10847;SDS011;5477;48.806;9.154;2023-11-18T03:07:48;3.07;;;2.23;;
10847;SDS011;5477;48.806;9.154;2023-11-18T03:10:19;2.20;;;1.90;;
10847;SDS011;5477;48.806;9.154;2023-11-18T03:12:49;2.37;;;2.00;;
10847;SDS011;5477;48.806;9.154;2023-11-18T03:15:17;2.40;;;2.20;;
10847;SDS011;5477;48.806;9.154;2023-11-18T03:17:47;2.43;;;2.00;;
10847;SDS011;5477;48.806;9.154;2023-11-18T03:20:17;2.20;;;2.00;;
10847;SDS011;5477;48.806;9.154;2023-11-18T03:22:46;2.50;;;2.00;;
10847;SDS011;5477;48.806;9.154;2023-11-18T03:25:15;2.77;;;2.57;;
10847;SDS011;5477;48.806;9.154;2023-11-18T03:27:44;2.60;;;2.40;;
10847;SDS011;5477;48.806;9.154;2023-11-18T03:30:12;2.53;;;2.33;;
10847;SDS011;5477;48.806;9.154;2023-11-18T03:32:40;3.27;;;2.80;;
10847;SDS011;5477;48.806;9.154;2023-11-18T03:35:10;4.07;;;2.70;;
10847;SDS011;5477;48.806;9.154;2023-11-18T03:37:39;4.63;;;3.00;;
10847;SDS011;5477;48.806;9.154;2023-11-18T03:40:10;3.30;;;3.00;;
10847;SDS011;5477;48.806;9.154;2023-11-18T03:42:39;3.70;;;2.80;;
10847;SDS011;5477;48.806;9.154;2023-11-18T03:45:08;3.57;;;2.77;;
10847;SDS011;5477;48.806;9.154;2023-11-18T03:47:37;4.27;;;2.93;;
10847;SDS011;5477;48.806;9.154;2023-11-18T03:50:06;3.43;;;2.83;;
10847;SDS011;5477;48.806;9.154;2023-11-18T03:52:37;3.33;;;2.90;;
10847;SDS011;5477;48.806;9.154;2023-11-18T03:55:05;3.00;;;2.70;;
10847;SDS011;5477;48.806;9.154;2023-11-18T03:57:34;3.67;;;2.57;;
10847;SDS011;5477;48.806;9.154;2023-11-18T04:00:02;2.77;;;2.40;;
10847;SDS011;5477;48.806;9.154;2023-11-18T04:02:40;2.47;;;2.27;;
10847;SDS011;5477;48.806;9.154;2023-11-18T04:05:08;3.77;;;2.60;;
10847;SDS011;5477;48.806;9.154;2023-11-18T04:07:38;3.07;;;2.60;;
10847;SDS011;5477;48.806;9.154;2023-11-18T04:10:08;3.27;;;2.57;;
10847;SDS011;5477;48.806;9.154;2023-11-18T04:12:38;2.33;;;2.03;;
10847;SDS011;5477;48.806;9.154;2023-11-18T04:15:06;2.40;;;2.20;;
10847;SDS011;5477;48.806;9.154;2023-11-18T04:17:34;2.33;;;2.03;;
10847;SDS011;5477;48.806;9.154;2023-11-18T04:20:05;2.80;;;2.20;;
10847;SDS011;5477;48.806;9.154;2023-11-18T04:22:39;2.40;;;2.20;;
10847;SDS011;5477;48.806;9.154;2023-11-18T04:25:08;2.77;;;2.47;;
10847;SDS011;5477;48.806;9.154;2023-11-18T04:27:36;2.33;;;2.13;;
10847;SDS011;5477;48.806;9.154;2023-11-18T04:30:05;3.23;;;1.90;;
10847;SDS011;5477;48.806;9.154;2023-11-18T04:32:35;2.93;;;2.10;;
10847;SDS011;5477;48.806;9.154;2023-11-18T04:35:03;3.10;;;2.23;;
10847;SDS011;5477;48.806;9.154;2023-11-18T04:37:37;3.00;;;2.43;;
10847;SDS011;5477;48.806;9.154;2023-11-18T04:40:07;2.37;;;2.17;;
10847;SDS011;5477;48.806;9.154;2023-11-18T04:42:39;2.67;;;2.47;;
10847;SDS011;5477;48.806;9.154;2023-11-18T04:45:10;2.37;;;2.17;;
10847;SDS011;5477;48.806;9.154;2023-11-18T04:47:40;2.53;;;2.03;;
10847;SDS011;5477;48.806;9.154;2023-11-18T04:50:10;2.90;;;2.47;;
10847;SDS011;5477;48.806;9.154;2023-11-18T04:52:38;4.10;;;2.20;;
10847;SDS011;5477;48.806;9.154;2023-11-18T04:55:08;2.70;;;2.40;;
10847;SDS011;5477;48.806;9.154;2023-11-18T04:57:39;3.67;;;2.50;;
10847;SDS011;5477;48.806;9.154;2023-11-18T05:00:08;2.80;;;2.40;;
10847;SDS011;5477;48.806;9.154;2023-11-18T05:02:38;4.83;;;2.40;;
10847;SDS011;5477;48.806;9.154;2023-11-18T05:05:07;2.60;;;2.40;;
10847;SDS011;5477;48.806;9.154;2023-11-18T05:07:36;2.83;;;2.40;;
10847;SDS011;5477;48.806;9.154;2023-11-18T05:10:05;3.53;;;2.47;;
10847;SDS011;5477;48.806;9.154;2023-11-18T05:12:36;3.20;;;2.33;;
10847;SDS011;5477;48.806;9.154;2023-11-18T05:15:04;2.90;;;2.30;;
10847;SDS011;5477;48.806;9.154;2023-11-18T05:17:34;3.30;;;2.67;;
10847;SDS011;5477;48.806;9.154;2023-11-18T05:20:03;3.63;;;2.43;;
10847;SDS011;5477;48.806;9.154;2023-11-18T05:22:31;3.97;;;2.47;;
10847;SDS011;5477;48.806;9.154;2023-11-18T05:24:59;3.80;;;2.63;;
10847;SDS011;5477;48.806;9.154;2023-11-18T05:27:27;4.03;;;2.27;;
10847;SDS011;5477;48.806;9.154;2023-11-18T05:29:57;3.17;;;2.80;;
10847;SDS011;5477;48.806;9.154;2023-11-18T05:32:26;3.30;;;2.67;;
10847;SDS011;5477;48.806;9.154;2023-11-18T05:34:55;2.80;;;2.50;;
10847;SDS011;5477;48.806;9.154;2023-11-18T05:37:24;3.13;;;2.80;;
10847;SDS011;5477;48.806;9.154;2023-11-18T05:39:54;2.90;;;2.50;;
10847;SDS011;5477;48.806;9.154;2023-11-18T05:42:32;2.70;;;2.50;;
10847;SDS011;5477;48.806;9.154;2023-11-18T05:45:07;4.63;;;2.40;;
10847;SDS011;5477;48.806;9.154;2023-11-18T05:47:43;2.83;;;2.43;;
10847;SDS011;5477;48.806;9.154;2023-11-18T05:50:12;3.03;;;2.73;;
10847;SDS011;5477;48.806;9.154;2023-11-18T05:52:41;3.93;;;2.70;;
10847;SDS011;5477;48.806;9.154;2023-11-18T05:55:09;3.23;;;2.60;;
10847;SDS011;5477;48.806;9.154;2023-11-18T05:57:37;2.47;;;2.27;;
10847;SDS011;5477;48.806;9.154;2023-11-18T06:00:06;2.57;;;2.37;;
10847;SDS011;5477;48.806;9.154;2023-11-18T06:02:39;2.47;;;2.27;;
10847;SDS011;5477;48.806;9.154;2023-11-18T06:05:07;2.37;;;2.00;;
10847;SDS011;5477;48.806;9.154;2023-11-18T06:07:36;2.63;;;2.20;;
10847;SDS011;5477;48.806;9.154;2023-11-18T06:10:06;3.20;;;2.50;;
10847;SDS011;5477;48.806;9.154;2023-11-18T06:12:35;3.90;;;2.30;;
10847;SDS011;5477;48.806;9.154;2023-11-18T06:15:08;4.07;;;2.40;;
10847;SDS011;5477;48.806;9.154;2023-11-18T06:17:43;3.47;;;2.60;;
10847;SDS011;5477;48.806;9.154;2023-11-18T06:20:12;2.80;;;2.60;;
10847;SDS011;5477;48.806;9.154;2023-11-18T06:22:40;3.27;;;2.20;;
10847;SDS011;5477;48.806;9.154;2023-11-18T06:25:08;3.80;;;2.47;;
10847;SDS011;5477;48.806;9.154;2023-11-18T06:27:39;2.17;;;1.93;;
10847;SDS011;5477;48.806;9.154;2023-11-18T06:30:09;3.23;;;2.33;;
10847;SDS011;5477;48.806;9.154;2023-11-18T06:32:38;2.80;;;2.50;;
10847;SDS011;5477;48.806;9.154;2023-11-18T06:35:07;2.60;;;2.40;;
10847;SDS011;5477;48.806;9.154;2023-11-18T06:37:35;4.53;;;2.53;;
10847;SDS011;5477;48.806;9.154;2023-11-18T06:40:04;3.70;;;3.07;;
10847;SDS011;5477;48.806;9.154;2023-11-18T06:42:42;3.07;;;2.47;;
10847;SDS011;5477;48.806;9.154;2023-11-18T06:45:14;4.23;;;2.70;;
10847;SDS011;5477;48.806;9.154;2023-11-18T06:47:43;2.90;;;2.60;;
10847;SDS011;5477;48.806;9.154;2023-11-18T06:50:12;3.40;;;2.80;;
10847;SDS011;5477;48.806;9.154;2023-11-18T06:52:42;3.43;;;3.13;;
10847;SDS011;5477;48.806;9.154;2023-11-18T06:55:14;4.07;;;3.13;;
10847;SDS011;5477;48.806;9.154;2023-11-18T06:57:42;3.67;;;2.87;;
10847;SDS011;5477;48.806;9.154;2023-11-18T07:00:11;3.47;;;2.90;;
10847;SDS011;5477;48.806;9.154;2023-11-18T07:02:43;3.47;;;2.63;;
10847;SDS011;5477;48.806;9.154;2023-11-18T07:05:13;3.00;;;2.50;;
10847;SDS011;5477;48.806;9.154;2023-11-18T07:07:41;2.97;;;2.67;;
10847;SDS011;5477;48.806;9.154;2023-11-18T07:10:10;3.47;;;2.77;;
10847;SDS011;5477;48.806;9.154;2023-11-18T07:12:39;3.00;;;2.70;;
10847;SDS011;5477;48.806;9.154;2023-11-18T07:15:08;4.07;;;3.23;;
10847;SDS011;5477;48.806;9.154;2023-11-18T07:17:37;4.47;;;3.20;;
10847;SDS011;5477;48.806;9.154;2023-11-18T07:20:07;3.23;;;2.93;;
10847;SDS011;5477;48.806;9.154;2023-11-18T07:22:38;3.77;;;3.17;;
10847;SDS011;5477;48.806;9.154;2023-11-18T07:25:06;3.63;;;3.10;;
10847;SDS011;5477;48.806;9.154;2023-11-18T07:27:35;4.50;;;3.50;;
10847;SDS011;5477;48.806;9.154;2023-11-18T07:30:04;3.60;;;2.90;;
10847;SDS011;5477;48.806;9.154;2023-11-18T07:32:36;4.03;;;3.20;;
10847;SDS011;5477;48.806;9.154;2023-11-18T07:35:05;4.10;;;3.30;;
10847;SDS011;5477;48.806;9.154;2023-11-18T07:37:36;3.43;;;2.87;;
10847;SDS011;5477;48.806;9.154;2023-11-18T07:40:04;3.60;;;2.87;;
10847;SDS011;5477;48.806;9.154;2023-11-18T07:42:32;4.00;;;2.97;;
10847;SDS011;5477;48.806;9.154;2023-11-18T07:45:01;4.60;;;3.20;;
10847;SDS011;5477;48.806;9.154;2023-11-18T07:47:30;6.10;;;3.40;;
10847;SDS011;5477;48.806;9.154;2023-11-18T07:49:58;4.50;;;3.63;;
10847;SDS011;5477;48.806;9.154;2023-11-18T07:52:32;3.33;;;3.03;;
10847;SDS011;5477;48.806;9.154;2023-11-18T07:55:00;6.03;;;3.27;;
10847;SDS011;5477;48.806;9.154;2023-11-18T07:57:28;4.03;;;3.20;;
10847;SDS011;5477;48.806;9.154;2023-11-18T07:59:56;5.53;;;3.57;;
10847;SDS011;5477;48.806;9.154;2023-11-18T08:02:38;5.23;;;3.60;;
10847;SDS011;5477;48.806;9.154;2023-11-18T08:05:07;4.93;;;3.57;;
10847;SDS011;5477;48.806;9.154;2023-11-18T08:07:36;5.37;;;3.30;;
10847;SDS011;5477;48.806;9.154;2023-11-18T08:10:05;3.67;;;3.20;;
10847;SDS011;5477;48.806;9.154;2023-11-18T08:12:39;6.03;;;3.30;;
10847;SDS011;5477;48.806;9.154;2023-11-18T08:15:07;3.43;;;2.87;;
10847;SDS011;5477;48.806;9.154;2023-11-18T08:17:36;4.67;;;3.60;;
10847;SDS011;5477;48.806;9.154;2023-11-18T08:20:04;4.33;;;3.00;;
10847;SDS011;5477;48.806;9.154;2023-11-18T08:22:41;3.50;;;3.10;;
10847;SDS011;5477;48.806;9.154;2023-11-18T08:25:12;4.17;;;2.90;;
10847;SDS011;5477;48.806;9.154;2023-11-18T08:27:41;3.23;;;2.83;;
10847;SDS011;5477;48.806;9.154;2023-11-18T08:30:09;4.33;;;3.00;;
10847;SDS011;5477;48.806;9.154;2023-11-18T08:32:39;3.73;;;2.97;;
10847;SDS011;5477;48.806;9.154;2023-11-18T08:35:10;5.43;;;2.60;;
10847;SDS011;5477;48.806;9.154;2023-11-18T08:37:40;3.87;;;2.70;;
10847;SDS011;5477;48.806;9.154;2023-11-18T08:40:11;4.20;;;3.00;;
10847;SDS011;5477;48.806;9.154;2023-11-18T08:42:42;2.87;;;2.30;;
10847;SDS011;5477;48.806;9.154;2023-11-18T08:45:15;4.10;;;2.57;;
10847;SDS011;5477;48.806;9.154;2023-11-18T08:47:45;4.43;;;2.37;;
10847;SDS011;5477;48.806;9.154;2023-11-18T08:50:13;2.30;;;2.10;;
10847;SDS011;5477;48.806;9.154;2023-11-18T08:52:44;3.37;;;2.70;;
10847;SDS011;5477;48.806;9.154;2023-11-18T08:55:14;4.43;;;2.53;;
10847;SDS011;5477;48.806;9.154;2023-11-18T08:57:47;3.20;;;2.40;;
10847;SDS011;5477;48.806;9.154;2023-11-18T09:00:25;3.80;;;2.10;;
10847;SDS011;5477;48.806;9.154;2023-11-18T09:03:11;6.47;;;2.80;;
10847;SDS011;5477;48.806;9.154;2023-11-18T09:05:44;5.83;;;2.87;;
10847;SDS011;5477;48.806;9.154;2023-11-18T09:08:28;3.23;;;2.53;;
10847;SDS011;5477;48.806;9.154;2023-11-18T09:10:58;2.63;;;2.40;;
10847;SDS011;5477;48.806;9.154;2023-11-18T09:13:26;2.30;;;1.93;;
10847;SDS011;5477;48.806;9.154;2023-11-18T09:15:56;4.47;;;2.27;;
10847;SDS011;5477;48.806;9.154;2023-11-18T09:18:26;2.73;;;2.00;;
10847;SDS011;5477;48.806;9.154;2023-11-18T09:20:54;2.83;;;2.10;;
10847;SDS011;5477;48.806;9.154;2023-11-18T09:23:25;4.17;;;1.70;;
10847;SDS011;5477;48.806;9.154;2023-11-18T09:25:58;4.70;;;1.77;;
10847;SDS011;5477;48.806;9.154;2023-11-18T09:28:27;1.70;;;1.60;;
10847;SDS011;5477;48.806;9.154;2023-11-18T09:30:56;2.00;;;1.63;;
10847;SDS011;5477;48.806;9.154;2023-11-18T09:33:25;5.03;;;2.10;;
10847;SDS011;5477;48.806;9.154;2023-11-18T09:35:55;4.87;;;1.80;;
10847;SDS011;5477;48.806;9.154;2023-11-18T09:38:27;4.10;;;1.80;;
10847;SDS011;5477;48.806;9.154;2023-11-18T09:40:56;2.87;;;1.90;;
10847;SDS011;5477;48.806;9.154;2023-11-18T09:43:29;3.50;;;1.60;;
10847;SDS011;5477;48.806;9.154;2023-11-18T09:46:02;2.87;;;1.50;;
10847;SDS011;5477;48.806;9.154;2023-11-18T09:48:40;2.53;;;1.30;;
10847;SDS011;5477;48.806;9.154;2023-11-18T09:51:19;2.50;;;1.37;;
10847;SDS011;5477;48.806;9.154;2023-11-18T09:53:50;2.60;;;1.30;;
10847;SDS011;5477;48.806;9.154;2023-11-18T09:56:23;2.87;;;1.60;;
10847;SDS011;5477;48.806;9.154;2023-11-18T09:59:05;2.83;;;1.30;;
10847;SDS011;5477;48.806;9.154;2023-11-18T10:01:43;1.70;;;1.40;;
10847;SDS011;5477;48.806;9.154;2023-11-18T10:04:13;3.30;;;1.47;;
10847;SDS011;5477;48.806;9.154;2023-11-18T10:06:44;3.30;;;1.43;;
10847;SDS011;5477;48.806;9.154;2023-11-18T10:09:15;4.37;;;1.40;;
10847;SDS011;5477;48.806;9.154;2023-11-18T10:11:47;1.47;;;1.37;;
10847;SDS011;5477;48.806;9.154;2023-11-18T10:14:15;2.13;;;1.40;;
10847;SDS011;5477;48.806;9.154;2023-11-18T10:16:44;2.73;;;1.40;;
10847;SDS011;5477;48.806;9.154;2023-11-18T10:19:15;3.57;;;1.70;;
10847;SDS011;5477;48.806;9.154;2023-11-18T10:21:45;4.13;;;1.70;;
10847;SDS011;5477;48.806;9.154;2023-11-18T10:24:17;2.70;;;1.80;;
10847;SDS011;5477;48.806;9.154;2023-11-18T10:26:54;2.63;;;1.67;;
10847;SDS011;5477;48.806;9.154;2023-11-18T10:29:23;2.47;;;1.80;;
10847;SDS011;5477;48.806;9.154;2023-11-18T10:32:04;3.27;;;1.80;;
10847;SDS011;5477;48.806;9.154;2023-11-18T10:34:36;2.10;;;1.50;;
10847;SDS011;5477;48.806;9.154;2023-11-18T10:37:04;2.17;;;1.40;;
10847;SDS011;5477;48.806;9.154;2023-11-18T10:39:34;2.97;;;1.67;;
10847;SDS011;5477;48.806;9.154;2023-11-18T10:42:02;2.53;;;1.33;;
10847;SDS011;5477;48.806;9.154;2023-11-18T10:44:31;2.63;;;1.40;;
10847;SDS011;5477;48.806;9.154;2023-11-18T10:46:59;1.97;;;1.43;;
10847;SDS011;5477;48.806;9.154;2023-11-18T10:49:28;1.60;;;1.50;;
10847;SDS011;5477;48.806;9.154;2023-11-18T10:52:03;2.10;;;1.50;;
10847;SDS011;5477;48.806;9.154;2023-11-18T10:54:36;2.63;;;1.37;;
10847;SDS011;5477;48.806;9.154;2023-11-18T10:57:04;2.30;;;1.53;;
10847;SDS011;5477;48.806;9.154;2023-11-18T10:59:35;1.60;;;1.10;;
10847;SDS011;5477;48.806;9.154;2023-11-18T11:02:17;1.70;;;1.50;;
10847;SDS011;5477;48.806;9.154;2023-11-18T11:04:48;2.17;;;1.43;;
10847;SDS011;5477;48.806;9.154;2023-11-18T11:07:16;3.07;;;1.40;;
10847;SDS011;5477;48.806;9.154;2023-11-18T11:09:47;2.10;;;1.37;;
10847;SDS011;5477;48.806;9.154;2023-11-18T11:12:22;3.40;;;1.33;;
10847;SDS011;5477;48.806;9.154;2023-11-18T11:14:55;1.77;;;1.20;;
10847;SDS011;5477;48.806;9.154;2023-11-18T11:17:27;3.37;;;1.60;;
10847;SDS011;5477;48.806;9.154;2023-11-18T11:19:59;3.47;;;1.50;;
10847;SDS011;5477;48.806;9.154;2023-11-18T11:22:46;3.90;;;1.30;;
10847;SDS011;5477;48.806;9.154;2023-11-18T11:25:37;2.33;;;1.50;;
10847;SDS011;5477;48.806;9.154;2023-11-18T11:28:11;3.33;;;1.70;;
10847;SDS011;5477;48.806;9.154;2023-11-18T11:30:50;1.30;;;1.20;;
10847;SDS011;5477;48.806;9.154;2023-11-18T11:33:23;1.93;;;1.30;;
10847;SDS011;5477;48.806;9.154;2023-11-18T11:35:56;1.57;;;1.30;;
10847;SDS011;5477;48.806;9.154;2023-11-18T11:38:24;3.90;;;1.20;;
10847;SDS011;5477;48.806;9.154;2023-11-18T11:40:56;3.90;;;1.10;;
10847;SDS011;5477;48.806;9.154;2023-11-18T11:43:28;2.50;;;1.27;;
10847;SDS011;5477;48.806;9.154;2023-11-18T11:45:56;1.77;;;1.27;;
10847;SDS011;5477;48.806;9.154;2023-11-18T11:48:25;1.70;;;1.40;;
10847;SDS011;5477;48.806;9.154;2023-11-18T11:51:00;3.43;;;1.50;;
10847;SDS011;5477;48.806;9.154;2023-11-18T11:53:41;2.20;;;1.50;;
10847;SDS011;5477;48.806;9.154;2023-11-18T11:56:15;4.23;;;1.60;;
10847;SDS011;5477;48.806;9.154;2023-11-18T11:58:50;3.47;;;1.40;;
10847;SDS011;5477;48.806;9.154;2023-11-18T12:01:24;2.07;;;1.23;;
10847;SDS011;5477;48.806;9.154;2023-11-18T12:03:59;3.20;;;1.47;;
10847;SDS011;5477;48.806;9.154;2023-11-18T12:06:33;2.53;;;1.30;;
10847;SDS011;5477;48.806;9.154;2023-11-18T12:09:09;2.03;;;1.10;;
10847;SDS011;5477;48.806;9.154;2023-11-18T12:11:40;2.03;;;1.50;;
10847;SDS011;5477;48.806;9.154;2023-11-18T12:14:12;2.00;;;1.27;;
10847;SDS011;5477;48.806;9.154;2023-11-18T12:17:02;2.97;;;1.23;;
10847;SDS011;5477;48.806;9.154;2023-11-18T12:19:37;2.27;;;1.10;;
10847;SDS011;5477;48.806;9.154;2023-11-18T12:22:13;1.57;;;1.37;;
10847;SDS011;5477;48.806;9.154;2023-11-18T12:28:14;2.63;;;1.10;;
10847;SDS011;5477;48.806;9.154;2023-11-18T12:30:43;1.20;;;1.00;;
10847;SDS011;5477;48.806;9.154;2023-11-18T12:36:46;1.40;;;0.90;;
10847;SDS011;5477;48.806;9.154;2023-11-18T12:39:50;3.63;;;1.20;;
10847;SDS011;5477;48.806;9.154;2023-11-18T12:42:53;2.70;;;1.10;;
10847;SDS011;5477;48.806;9.154;2023-11-18T12:48:33;2.77;;;1.10;;
10847;SDS011;5477;48.806;9.154;2023-11-18T12:51:06;2.63;;;1.10;;
10847;SDS011;5477;48.806;9.154;2023-11-18T12:53:39;1.83;;;1.17;;
10847;SDS011;5477;48.806;9.154;2023-11-18T12:56:07;1.93;;;1.00;;
10847;SDS011;5477;48.806;9.154;2023-11-18T12:58:37;2.63;;;1.20;;
10847;SDS011;5477;48.806;9.154;2023-11-18T13:01:06;1.90;;;1.30;;
10847;SDS011;5477;48.806;9.154;2023-11-18T13:03:39;1.93;;;1.30;;
10847;SDS011;5477;48.806;9.154;2023-11-18T13:06:08;3.57;;;1.13;;
10847;SDS011;5477;48.806;9.154;2023-11-18T13:08:38;2.20;;;1.20;;
10847;SDS011;5477;48.806;9.154;2023-11-18T13:11:06;1.80;;;1.30;;
10847;SDS011;5477;48.806;9.154;2023-11-18T13:13:42;3.10;;;1.27;;
10847;SDS011;5477;48.806;9.154;2023-11-18T13:16:12;2.90;;;1.60;;
10847;SDS011;5477;48.806;9.154;2023-11-18T13:18:41;2.30;;;1.27;;
10847;SDS011;5477;48.806;9.154;2023-11-18T13:21:13;4.50;;;1.30;;
10847;SDS011;5477;48.806;9.154;2023-11-18T13:23:45;2.30;;;1.50;;
10847;SDS011;5477;48.806;9.154;2023-11-18T13:26:14;2.37;;;1.40;;
10847;SDS011;5477;48.806;9.154;2023-11-18T13:28:42;3.50;;;1.53;;
10847;SDS011;5477;48.806;9.154;2023-11-18T13:31:12;3.97;;;1.40;;
10847;SDS011;5477;48.806;9.154;2023-11-18T13:33:42;2.10;;;1.40;;
10847;SDS011;5477;48.806;9.154;2023-11-18T13:36:11;4.47;;;1.57;;
10847;SDS011;5477;48.806;9.154;2023-11-18T13:38:39;3.90;;;1.53;;
10847;SDS011;5477;48.806;9.154;2023-11-18T13:41:08;1.77;;;1.30;;
10847;SDS011;5477;48.806;9.154;2023-11-18T13:43:43;4.60;;;1.37;;
10847;SDS011;5477;48.806;9.154;2023-11-18T13:46:12;2.90;;;1.40;;
10847;SDS011;5477;48.806;9.154;2023-11-18T13:48:41;1.77;;;1.30;;
10847;SDS011;5477;48.806;9.154;2023-11-18T13:51:09;2.73;;;1.60;;
10847;SDS011;5477;48.806;9.154;2023-11-18T13:53:40;2.70;;;1.97;;
10847;SDS011;5477;48.806;9.154;2023-11-18T13:56:10;3.43;;;2.00;;
10847;SDS011;5477;48.806;9.154;2023-11-18T13:58:39;3.70;;;1.77;;
10847;SDS011;5477;48.806;9.154;2023-11-18T14:01:07;4.30;;;1.63;;
10847;SDS011;5477;48.806;9.154;2023-11-18T14:03:40;3.37;;;1.73;;
10847;SDS011;5477;48.806;9.154;2023-11-18T14:06:10;2.77;;;1.67;;
10847;SDS011;5477;48.806;9.154;2023-11-18T14:08:38;2.60;;;1.67;;
10847;SDS011;5477;48.806;9.154;2023-11-18T14:11:08;4.67;;;1.63;;
10847;SDS011;5477;48.806;9.154;2023-11-18T14:13:43;4.17;;;1.67;;
10847;SDS011;5477;48.806;9.154;2023-11-18T14:16:11;1.93;;;1.40;;
10847;SDS011;5477;48.806;9.154;2023-11-18T14:18:41;4.20;;;1.70;;
10847;SDS011;5477;48.806;9.154;2023-11-18T14:21:09;4.23;;;2.20;;
10847;SDS011;5477;48.806;9.154;2023-11-18T14:23:37;3.27;;;1.67;;
10847;SDS011;5477;48.806;9.154;2023-11-18T14:26:06;1.93;;;1.60;;
10847;SDS011;5477;48.806;9.154;2023-11-18T14:28:34;2.63;;;1.50;;
10847;SDS011;5477;48.806;9.154;2023-11-18T14:31:03;4.10;;;1.90;;
10847;SDS011;5477;48.806;9.154;2023-11-18T14:33:34;3.17;;;1.87;;
10847;SDS011;5477;48.806;9.154;2023-11-18T14:36:03;4.07;;;2.00;;
10847;SDS011;5477;48.806;9.154;2023-11-18T14:38:32;2.67;;;1.90;;
10847;SDS011;5477;48.806;9.154;2023-11-18T14:41:01;4.00;;;1.83;;
10847;SDS011;5477;48.806;9.154;2023-11-18T14:43:29;5.27;;;2.40;;
10847;SDS011;5477;48.806;9.154;2023-11-18T14:45:58;3.23;;;2.03;;
10847;SDS011;5477;48.806;9.154;2023-11-18T14:48:26;3.07;;;1.90;;
10847;SDS011;5477;48.806;9.154;2023-11-18T14:50:54;2.37;;;1.93;;
10847;SDS011;5477;48.806;9.154;2023-11-18T14:53:24;5.43;;;2.20;;
10847;SDS011;5477;48.806;9.154;2023-11-18T14:55:52;2.87;;;2.17;;
10847;SDS011;5477;48.806;9.154;2023-11-18T14:58:20;2.63;;;1.93;;
10847;SDS011;5477;48.806;9.154;2023-11-18T15:00:48;4.63;;;2.23;;
10847;SDS011;5477;48.806;9.154;2023-11-18T15:03:16;4.50;;;2.40;;
10847;SDS011;5477;48.806;9.154;2023-11-18T15:05:45;5.47;;;2.30;;
10847;SDS011;5477;48.806;9.154;2023-11-18T15:08:12;2.87;;;1.83;;
10847;SDS011;5477;48.806;9.154;2023-11-18T15:10:43;3.17;;;2.20;;
10847;SDS011;5477;48.806;9.154;2023-11-18T15:13:11;2.63;;;2.00;;
10847;SDS011;5477;48.806;9.154;2023-11-18T15:15:42;4.13;;;2.30;;
10847;SDS011;5477;48.806;9.154;2023-11-18T15:18:13;5.83;;;2.43;;
10847;SDS011;5477;48.806;9.154;2023-11-18T15:20:44;3.07;;;2.10;;
10847;SDS011;5477;48.806;9.154;2023-11-18T15:23:14;3.97;;;2.03;;
10847;SDS011;5477;48.806;9.154;2023-11-18T15:25:45;5.03;;;2.27;;
10847;SDS011;5477;48.806;9.154;2023-11-18T15:28:13;3.93;;;2.90;;
10847;SDS011;5477;48.806;9.154;2023-11-18T15:30:42;4.17;;;2.67;;